Time;durP1;ratioP1;P1;durP2;ratioP2;P2;SDS_P1;SDS_P2;PMS_P1;PMS_P2;Temp;Humidity;BMP_temperature;BMP_pressure;BME280_temperature;BME280_humidity;BME280_pressure;Samples;Min_cycle;Max_cycle;Signal;HPM_P1;HPM_P2
2022/06/02 00:00:47;;;;;;;1.60;0.53;;;22.90;45.70;;;;;;5027448;28;20892;-70
2022/06/02 00:03:24;;;;;;;0.50;0.50;;;23.10;45.80;;;;;;5027463;28;20460;-70
2022/06/02 00:06:12;;;;;;;0.60;0.57;;;22.90;46.40;;;;;;5027578;28;20388;-70
2022/06/02 00:08:46;;;;;;;0.90;0.60;;;23.20;47.00;;;;;;5027107;28;20419;-70
2022/06/02 00:11:17;;;;;;;0.93;0.60;;;23.80;46.20;;;;;;5026922;28;20436;-70
2022/06/02 00:13:58;;;;;;;0.77;0.77;;;22.90;46.50;;;;;;5027371;28;20499;-70
2022/06/02 00:16:48;;;;;;;0.57;0.57;;;23.70;47.00;;;;;;5027106;28;20511;-70
2022/06/02 00:19:21;;;;;;;0.50;0.50;;;22.90;45.60;;;;;;5027143;28;20419;-70
2022/06/02 00:21:55;;;;;;;0.60;0.60;;;23.90;47.10;;;;;;5007468;28;20465;-70
2022/06/02 00:24:39;;;;;;;0.50;0.43;;;23.40;45.90;;;;;;5007563;28;20867;-70
2022/06/02 00:27:16;;;;;;;0.60;0.60;;;23.50;46.70;;;;;;5007383;28;20406;-69
2022/06/02 00:29:47;;;;;;;0.63;0.63;;;22.90;45.60;;;;;;5014759;28;20420;-70
2022/06/02 00:32:23;;;;;;;0.50;0.40;;;22.90;46.50;;;;;;5026866;28;20447;-70
2022/06/02 00:35:10;;;;;;;0.53;0.50;;;23.00;46.60;;;;;;5026984;28;20510;-70
2022/06/02 00:37:55;;;;;;;0.53;0.53;;;23.40;45.90;;;;;;5026688;28;20424;-70
2022/06/02 00:40:23;;;;;;;0.50;0.50;;;22.90;45.60;;;;;;5026459;28;20971;-70
2022/06/02 00:43:31;;;;;;;0.60;0.43;;;22.90;46.60;;;;;;5027609;28;20964;-70
2022/06/02 00:46:09;;;;;;;0.50;0.50;;;22.90;45.60;;;;;;5033222;28;20419;-70
2022/06/02 00:48:48;;;;;;;0.60;0.50;;;22.90;45.60;;;;;;5026455;28;20419;-70
2022/06/02 00:51:23;;;;;;;0.60;0.60;;;23.30;46.70;;;;;;5026765;28;20479;-69
2022/06/02 01:00:06;;;;;;;0.60;0.40;;;22.70;62.60;;;;;;5054341;28;20480;-70
2022/06/02 01:02:48;;;;;;;0.93;0.63;;;22.40;46.30;;;;;;5026489;28;20447;-70
2022/06/02 01:05:21;;;;;;;0.50;0.50;;;22.90;45.40;;;;;;5026675;28;20450;-70
2022/06/02 01:08:20;;;;;;;0.50;0.50;;;22.80;46.20;;;;;;5026355;28;20506;-70
2022/06/02 01:11:17;;;;;;;1.83;0.90;;;22.90;45.40;;;;;;5042347;28;20832;-69
2022/06/02 01:13:56;;;;;;;0.60;0.60;;;22.90;45.40;;;;;;5025847;28;20510;-70
2022/06/02 01:16:36;;;;;;;0.60;0.60;;;22.90;45.40;;;;;;5026149;28;20530;-70
2022/06/02 01:19:20;;;;;;;0.67;0.67;;;22.90;46.30;;;;;;5026640;28;20453;-70
2022/06/02 01:22:15;;;;;;;0.50;0.50;;;22.80;45.30;;;;;;5021662;28;20572;-70
2022/06/02 01:25:05;;;;;;;0.50;0.47;;;22.90;45.40;;;;;;5026553;28;20475;-69
2022/06/02 01:27:58;;;;;;;1.47;0.50;;;22.80;45.20;;;;;;5026105;28;20451;-70
2022/06/02 01:30:57;;;;;;;0.50;0.50;;;22.90;45.30;;;;;;5026078;28;20435;-70
2022/06/02 01:33:36;;;;;;;0.57;0.57;;;22.80;45.20;;;;;;5026457;28;20453;-69
2022/06/02 01:36:09;;;;;;;0.50;0.50;;;22.90;46.30;;;;;;5026154;28;20891;-70
2022/06/02 01:38:52;;;;;;;0.53;0.53;;;22.90;46.20;;;;;;5025856;28;20527;-70
2022/06/02 01:41:21;;;;;;;0.50;0.50;;;23.10;46.40;;;;;;5025580;28;20455;-70
2022/06/02 01:44:00;;;;;;;0.50;0.50;;;22.60;45.20;;;;;;5026017;28;20499;-70
2022/06/02 01:46:39;;;;;;;0.57;0.57;;;24.50;47.00;;;;;;5025750;28;20415;-70
2022/06/02 01:49:32;;;;;;;0.70;0.70;;;22.80;45.10;;;;;;5026197;28;20841;-70
2022/06/02 01:52:03;;;;;;;0.50;0.50;;;22.90;45.30;;;;;;5027654;28;20551;-70
2022/06/02 01:54:50;;;;;;;0.53;0.53;;;22.80;45.20;;;;;;5029451;28;20418;-70
2022/06/02 01:57:27;;;;;;;0.60;0.50;;;22.80;45.10;;;;;;5029316;28;20465;-70
2022/06/02 02:00:31;;;;;;;0.60;0.60;;;22.90;61.70;;;;;;5029164;28;20423;-70
2022/06/02 02:03:15;;;;;;;0.50;0.50;;;23.00;46.30;;;;;;5069664;28;20982;-70
2022/06/02 02:05:50;;;;;;;0.60;0.57;;;22.80;45.90;;;;;;5031509;28;20415;-70
2022/06/02 02:08:31;;;;;;;0.60;0.57;;;23.00;46.00;;;;;;5028945;28;20526;-69
2022/06/02 02:11:26;;;;;;;0.87;0.60;;;22.90;45.20;;;;;;5028965;28;20531;-70
2022/06/02 02:14:06;;;;;;;0.80;0.50;;;22.80;46.10;;;;;;5009536;28;20409;-70
2022/06/02 02:17:04;;;;;;;0.80;0.80;;;23.30;46.30;;;;;;5009497;28;20897;-70
2022/06/02 02:19:44;;;;;;;0.70;0.70;;;22.80;45.10;;;;;;5014009;28;20441;-70
2022/06/02 02:22:29;;;;;;;0.60;0.50;;;22.80;45.10;;;;;;5028412;28;20463;-69
2022/06/02 02:25:28;;;;;;;0.70;0.70;;;22.90;45.20;;;;;;5029009;28;20396;-70
2022/06/02 02:28:21;;;;;;;0.97;0.50;;;22.80;45.10;;;;;;5028776;28;20450;-69
2022/06/02 02:31:06;;;;;;;0.60;0.60;;;23.70;46.40;;;;;;5027380;28;20613;-70
2022/06/02 02:33:44;;;;;;;0.50;0.40;;;22.80;45.10;;;;;;5028965;28;20490;-69
2022/06/02 02:36:52;;;;;;;0.60;0.50;;;22.80;46.00;;;;;;5028749;28;20439;-70
2022/06/02 02:39:30;;;;;;;0.73;0.50;;;22.80;45.20;;;;;;5028770;28;20943;-70
2022/06/02 02:42:02;;;;;;;0.93;0.93;;;22.60;45.90;;;;;;5028460;28;20471;-70
2022/06/02 02:44:36;;;;;;;0.73;0.60;;;22.80;45.80;;;;;;5028590;28;20396;-70
2022/06/02 02:47:33;;;;;;;0.90;0.73;;;22.70;45.90;;;;;;5028600;28;21189;-70
2022/06/02 02:50:14;;;;;;;0.60;0.57;;;22.90;66.70;;;;;;5058856;28;20416;-70
2022/06/02 02:53:06;;;;;;;0.83;0.50;;;22.80;45.10;;;;;;5028734;28;20411;-70
2022/06/02 02:55:39;;;;;;;0.60;0.60;;;22.80;45.20;;;;;;5028454;28;20971;-69
2022/06/02 02:58:27;;;;;;;0.80;0.63;;;23.20;46.00;;;;;;5028388;28;20423;-70
2022/06/02 03:01:10;;;;;;;0.60;0.60;;;22.80;46.10;;;;;;5028267;28;20455;-70
2022/06/02 03:03:52;;;;;;;0.50;0.40;;;22.80;45.20;;;;;;5027444;28;20869;-70
2022/06/02 03:06:26;;;;;;;0.70;0.60;;;22.80;46.10;;;;;;5028456;28;20804;-70
2022/06/02 03:09:16;;;;;;;0.80;0.80;;;23.80;46.50;;;;;;5028521;28;20703;-70
2022/06/02 03:11:57;;;;;;;0.90;0.80;;;22.80;45.10;;;;;;5028193;28;21099;-70
2022/06/02 03:14:48;;;;;;;0.60;0.60;;;22.80;45.20;;;;;;5028328;28;20753;-70
2022/06/02 03:17:57;;;;;;;0.80;0.60;;;22.80;45.20;;;;;;5023655;28;20412;-70
2022/06/02 03:20:37;;;;;;;1.57;0.57;;;22.80;45.10;;;;;;5043798;28;20834;-70
2022/06/02 03:23:36;;;;;;;1.33;0.70;;;22.80;45.20;;;;;;5028152;28;20470;-70
2022/06/02 03:26:14;;;;;;;1.13;0.90;;;23.40;45.40;;;;;;5028469;28;20435;-70
2022/06/02 03:28:56;;;;;;;0.50;0.50;;;22.80;46.10;;;;;;5028122;28;20426;-70
2022/06/02 03:31:44;;;;;;;0.50;0.50;;;22.80;45.10;;;;;;5027919;28;20508;-70
2022/06/02 03:34:16;;;;;;;0.70;0.70;;;22.50;45.10;;;;;;5027546;28;20626;-70
2022/06/02 03:37:09;;;;;;;0.90;0.53;;;22.60;45.80;;;;;;5027473;28;20522;-70
2022/06/02 03:39:56;;;;;;;2.70;0.70;;;22.70;45.20;;;;;;5027710;28;20432;-70
2022/06/02 03:42:40;;;;;;;0.60;0.60;;;22.80;45.40;;;;;;5027711;28;20803;-70
2022/06/02 03:45:33;;;;;;;0.60;0.60;;;22.80;45.20;;;;;;5027741;28;20406;-70
2022/06/02 03:48:16;;;;;;;0.53;0.53;;;22.80;45.20;;;;;;5027592;28;20419;-70
2022/06/02 03:50:51;;;;;;;0.60;0.60;;;22.80;45.20;;;;;;5027050;28;20443;-70
2022/06/02 03:53:36;;;;;;;0.80;0.80;;;22.80;45.20;;;;;;5027534;28;20475;-70
2022/06/02 03:56:24;;;;;;;0.70;0.70;;;22.90;46.20;;;;;;5027286;28;20400;-70
2022/06/02 03:59:21;;;;;;;0.90;0.70;;;22.80;45.30;;;;;;5027159;28;20416;-70
2022/06/02 04:01:57;;;;;;;1.07;0.60;;;22.80;45.20;;;;;;5026879;28;20495;-69
2022/06/02 04:04:39;;;;;;;0.50;0.50;;;22.80;46.00;;;;;;5027424;28;20418;-70
2022/06/02 04:07:30;;;;;;;0.77;0.70;;;22.90;45.90;;;;;;5027213;28;20774;-70
2022/06/02 04:10:12;;;;;;;1.07;0.67;;;22.60;61.90;;;;;;5027247;28;20435;-70
2022/06/02 04:16:08;;;;;;;0.90;0.90;;;22.80;45.30;;;;;;5026022;28;20428;-70
2022/06/02 04:18:39;;;;;;;1.13;0.73;;;22.90;45.30;;;;;;5026889;28;20423;-70
2022/06/02 04:21:13;;;;;;;1.00;0.90;;;22.80;45.30;;;;;;5026795;28;20443;-70
2022/06/02 04:24:32;;;;;;;0.50;0.50;;;22.70;45.20;;;;;;5027014;28;20400;-70
2022/06/02 04:27:17;;;;;;;0.80;0.60;;;22.80;45.30;;;;;;5046953;28;20431;-70
2022/06/02 04:30:05;;;;;;;0.80;0.80;;;22.80;46.40;;;;;;5007714;28;20408;-70
2022/06/02 04:32:41;;;;;;;0.63;0.53;;;22.80;45.30;;;;;;5025346;28;20424;-69
2022/06/02 04:35:37;;;;;;;1.80;0.70;;;22.80;45.20;;;;;;5027319;28;20502;-70
2022/06/02 04:38:32;;;;;;;0.60;0.60;;;22.30;45.00;;;;;;5009835;28;20549;-70
2022/06/02 04:41:09;;;;;;;0.70;0.70;;;22.80;45.20;;;;;;5043764;28;20451;-70
2022/06/02 04:43:57;;;;;;;0.87;0.67;;;22.80;45.30;;;;;;5026651;28;20430;-75
2022/06/02 04:46:50;;;;;;;0.93;0.93;;;22.80;45.40;;;;;;5030897;28;20608;-72
2022/06/02 04:49:22;;;;;;;1.43;0.70;;;23.40;45.70;;;;;;5036442;28;20520;-73
2022/06/02 04:52:11;;;;;;;1.57;1.43;;;22.80;45.40;;;;;;5101185;28;20437;-72
2022/06/02 04:54:57;;;;;;;1.10;1.00;;;22.80;45.60;;;;;;5025440;28;20420;-70
2022/06/02 04:57:33;;;;;;;0.50;0.50;;;22.80;46.60;;;;;;5025871;28;20502;-70
2022/06/02 05:00:03;;;;;;;0.97;0.97;;;22.90;62.30;;;;;;5026352;28;20424;-71
2022/06/02 05:02:58;;;;;;;0.60;0.60;;;22.80;46.40;;;;;;5025324;28;20451;-71
2022/06/02 05:05:24;;;;;;;0.70;0.70;;;23.00;45.60;;;;;;5024063;28;20432;-70
2022/06/02 05:08:17;;;;;;;1.00;1.00;;;23.50;46.80;;;;;;5025490;28;20408;-71
2022/06/02 05:11:14;;;;;;;3.47;0.50;;;22.80;45.40;;;;;;5033230;28;20227;-71
2022/06/02 05:14:10;;;;;;;1.00;0.90;;;22.90;45.30;;;;;;5018548;28;20412;-71
2022/06/02 05:16:53;;;;;;;6.27;0.80;;;22.90;45.20;;;;;;5026144;28;20491;-71
2022/06/02 05:19:29;;;;;;;0.80;0.80;;;23.60;46.40;;;;;;5026432;28;20466;-71
2022/06/02 05:22:20;;;;;;;2.87;0.73;;;22.90;45.30;;;;;;5025586;28;20574;-71
2022/06/02 05:24:51;;;;;;;0.50;0.50;;;22.90;45.30;;;;;;5013647;28;20427;-71
2022/06/02 05:27:35;;;;;;;0.80;0.80;;;22.90;46.20;;;;;;5021952;28;20454;-71
2022/06/02 05:30:27;;;;;;;1.80;0.93;;;23.00;67.10;;;;;;5025010;28;20414;-71
2022/06/02 05:33:31;;;;;;;0.87;0.70;;;22.90;45.30;;;;;;5015946;28;20439;-71
2022/06/02 05:36:11;;;;;;;2.10;0.87;;;22.90;45.30;;;;;;5017892;28;20412;-71
2022/06/02 05:38:55;;;;;;;1.00;0.77;;;22.90;45.30;;;;;;5017792;28;20431;-70
2022/06/02 05:41:30;;;;;;;0.77;0.77;;;22.90;46.00;;;;;;5027659;28;20459;-71
2022/06/02 05:44:28;;;;;;;0.80;0.67;;;22.90;45.40;;;;;;5018661;28;20503;-71
2022/06/02 05:47:18;;;;;;;0.50;0.50;;;23.00;45.40;;;;;;5022847;28;20431;-71
2022/06/02 05:50:06;;;;;;;1.00;0.77;;;23.10;46.00;;;;;;5022597;28;20494;-70
2022/06/02 05:53:02;;;;;;;1.17;0.93;;;22.90;45.60;;;;;;5028856;28;20420;-71
2022/06/02 05:55:33;;;;;;;1.70;0.67;;;22.90;45.60;;;;;;5028611;28;20419;-71
2022/06/02 05:58:38;;;;;;;0.90;0.90;;;22.90;45.40;;;;;;5028484;28;20434;-71
2022/06/02 06:01:22;;;;;;;1.03;0.93;;;22.90;45.40;;;;;;5028664;28;20443;-71
2022/06/02 06:03:47;;;;;;;4.03;0.77;;;22.90;45.50;;;;;;5027290;28;20432;-74
2022/06/02 06:06:43;;;;;;;0.83;0.83;;;23.40;46.80;;;;;;5029068;28;20839;-73
2022/06/02 06:09:40;;;;;;;3.80;1.03;;;22.90;45.50;;;;;;5019497;28;20547;-72
2022/06/02 06:12:22;;;;;;;1.10;0.90;;;22.90;45.70;;;;;;5027683;28;20475;-72
2022/06/02 06:15:01;;;;;;;0.73;0.73;;;23.00;46.80;;;;;;5024551;28;20470;-71
2022/06/02 06:17:36;;;;;;;0.93;0.93;;;23.60;47.10;;;;;;5027035;28;20431;-73
2022/06/02 06:20:12;;;;;;;4.20;1.00;;;23.10;68.10;;;;;;5025798;28;20463;-72
2022/06/02 06:23:01;;;;;;;1.37;0.90;;;23.20;68.50;;;;;;5020859;28;20475;-69
2022/06/02 06:25:51;;;;;;;1.00;0.90;;;23.00;46.30;;;;;;5010337;28;20417;-69
2022/06/02 06:28:19;;;;;;;0.60;0.60;;;23.10;46.50;;;;;;5016695;28;20440;-69
2022/06/02 06:30:48;;;;;;;1.67;1.10;;;23.60;47.70;;;;;;5026434;28;20524;-70
2022/06/02 06:33:28;;;;;;;0.60;0.60;;;23.70;47.90;;;;;;5026558;28;20488;-70
2022/06/02 06:36:20;;;;;;;0.80;0.80;;;23.20;46.80;;;;;;5020356;28;20497;-70
2022/06/02 06:39:04;;;;;;;1.90;1.10;;;23.20;47.00;;;;;;5014634;28;20431;-73
2022/06/02 06:41:56;;;;;;;2.20;0.90;;;23.30;47.10;;;;;;5028111;28;20466;-71
2022/06/02 06:44:30;;;;;;;2.30;1.13;;;23.20;47.20;;;;;;5027840;28;20436;-73
2022/06/02 06:47:08;;;;;;;3.13;0.83;;;23.30;47.30;;;;;;5027394;28;20870;-72
2022/06/02 06:50:12;;;;;;;1.00;1.00;;;23.30;48.40;;;;;;5015253;28;20427;-73
2022/06/02 06:52:57;;;;;;;1.33;1.07;;;23.30;47.40;;;;;;5026440;28;20519;-73
2022/06/02 06:55:46;;;;;;;1.03;0.93;;;23.30;47.70;;;;;;5025002;28;20459;-70
2022/06/02 06:58:40;;;;;;;1.63;0.80;;;23.40;48.60;;;;;;5022091;28;20445;-71
2022/06/02 07:01:41;;;;;;;1.20;1.10;;;23.40;47.90;;;;;;5026296;28;20668;-71
2022/06/02 07:04:22;;;;;;;1.83;1.17;;;23.60;48.50;;;;;;5026321;28;20498;-68
2022/06/02 07:07:00;;;;;;;2.50;0.97;;;23.40;47.80;;;;;;5025755;28;20422;-68
2022/06/02 07:09:41;;;;;;;0.70;0.70;;;23.80;48.90;;;;;;5027125;28;20483;-73
2022/06/02 07:15:03;;;;;;;0.57;0.57;;;24.50;48.70;;;;;;5025605;28;20480;-70
2022/06/02 07:18:03;;;;;;;4.60;1.13;;;23.50;48.90;;;;;;5026943;28;20423;-71
2022/06/02 07:20:54;;;;;;;0.97;0.97;;;23.50;48.30;;;;;;5024124;28;20824;-72
2022/06/02 07:23:32;;;;;;;0.60;0.60;;;23.60;48.50;;;;;;5026482;28;20467;-69
2022/06/02 07:26:08;;;;;;;0.83;0.83;;;23.70;49.60;;;;;;5025704;28;20486;-70
2022/06/02 07:29:02;;;;;;;0.93;0.60;;;23.70;48.60;;;;;;5025028;28;20510;-70
2022/06/02 07:32:05;;;;;;;0.63;0.63;;;23.60;48.60;;;;;;5041925;28;20496;-74
2022/06/02 07:35:13;;;;;;;0.90;0.90;;;23.60;48.60;;;;;;5021899;28;20415;-71
2022/06/02 07:38:12;;;;;;;0.60;0.60;;;23.70;48.70;;;;;;5015644;28;20436;-70
2022/06/02 07:41:07;;;;;;;1.27;1.00;;;23.60;48.80;;;;;;5026164;28;20507;-73
2022/06/02 07:44:16;;;;;;;1.37;0.90;;;23.60;48.80;;;;;;5027257;28;20693;-74
2022/06/02 07:47:12;;;;;;;0.97;0.80;;;23.60;48.80;;;;;;5033187;28;20505;-75
2022/06/02 07:49:59;;;;;;;1.37;0.83;;;24.20;49.20;;;;;;5025494;28;20408;-73
2022/06/02 07:52:54;;;;;;;1.73;1.13;;;23.70;49.00;;;;;;5024421;28;20407;-71
2022/06/02 07:55:28;;;;;;;0.80;0.67;;;23.70;49.10;;;;;;5024257;28;20447;-71
2022/06/02 07:58:38;;;;;;;0.80;0.80;;;23.70;49.10;;;;;;5026245;28;20495;-67
2022/06/02 08:01:43;;;;;;;0.73;0.73;;;23.60;49.20;;;;;;5023916;28;20558;-72
2022/06/02 08:04:37;;;;;;;2.60;0.60;;;23.80;49.40;;;;;;5024701;28;20427;-68
2022/06/02 08:07:12;;;;;;;1.70;1.47;;;24.10;50.30;;;;;;5022242;28;20450;-69
2022/06/02 08:10:03;;;;;;;0.50;0.50;;;24.20;50.30;;;;;;5025300;28;20426;-68
2022/06/02 08:12:56;;;;;;;6.13;0.70;;;23.80;49.40;;;;;;5025204;28;20497;-68
2022/06/02 08:15:49;;;;;;;0.50;0.50;;;24.60;50.60;;;;;;5022693;28;20430;-69
2022/06/02 08:18:36;;;;;;;1.70;0.90;;;23.80;49.50;;;;;;5025525;28;20458;-70
2022/06/02 08:21:54;;;;;;;0.80;0.77;;;23.80;49.40;;;;;;5025602;28;20897;-69
2022/06/02 08:24:37;;;;;;;1.20;0.80;;;23.80;49.50;;;;;;5042731;28;20453;-68
2022/06/02 08:27:38;;;;;;;3.10;0.70;;;23.80;49.60;;;;;;5025888;28;20474;-73
2022/06/02 08:30:29;;;;;;;3.20;0.60;;;23.90;72.00;;;;;;5024026;28;20411;-72
2022/06/02 08:33:10;;;;;;;0.60;0.53;;;23.90;49.90;;;;;;5026657;28;20822;-71
2022/06/02 08:35:39;;;;;;;2.90;0.80;;;23.90;49.80;;;;;;5022681;28;20506;-70
2022/06/02 08:38:17;;;;;;;2.57;0.90;;;23.90;50.50;;;;;;5026055;28;20440;-71
2022/06/02 08:41:27;;;;;;;1.03;0.70;;;23.90;50.10;;;;;;5025115;28;20522;-67
2022/06/02 08:44:02;;;;;;;1.00;0.70;;;23.80;47.50;;;;;;5023783;28;20552;-68
2022/06/02 08:46:55;;;;;;;4.67;0.53;;;23.90;47.80;;;;;;5026815;28;20443;-72
2022/06/02 08:49:41;;;;;;;1.10;1.00;;;23.80;45.60;;;;;;5022086;28;20422;-70
2022/06/02 08:52:30;;;;;;;0.50;0.40;;;23.70;45.60;;;;;;5025342;28;20781;-68
2022/06/02 08:55:14;;;;;;;0.97;0.63;;;23.80;45.40;;;;;;5023116;28;20426;-71
2022/06/02 08:58:18;;;;;;;1.70;0.80;;;24.30;46.80;;;;;;5025390;28;20842;-71
2022/06/02 09:01:22;;;;;;;1.13;0.70;;;23.80;45.60;;;;;;5044550;28;20435;-71
2022/06/02 09:03:59;;;;;;;0.97;0.80;;;23.20;45.50;;;;;;5028689;28;20904;-72
2022/06/02 09:06:49;;;;;;;1.27;0.70;;;23.80;45.90;;;;;;5028399;28;20411;-72
2022/06/02 09:09:33;;;;;;;0.97;0.80;;;23.80;46.20;;;;;;5028171;28;20476;-71
2022/06/02 09:12:24;;;;;;;0.60;0.50;;;23.90;46.40;;;;;;5029351;28;20431;-69
2022/06/02 09:15:12;;;;;;;1.57;0.73;;;23.90;46.60;;;;;;5026151;28;20527;-70
2022/06/02 09:18:10;;;;;;;1.17;0.53;;;23.80;46.60;;;;;;5027248;28;20412;-73
2022/06/02 09:20:45;;;;;;;0.70;0.43;;;23.90;46.90;;;;;;5028703;28;20440;-74
2022/06/02 09:23:44;;;;;;;0.80;0.70;;;24.40;48.40;;;;;;5029486;28;20455;-75
2022/06/02 09:26:18;;;;;;;0.53;0.53;;;23.30;46.70;;;;;;5029301;28;20729;-74
2022/06/02 09:28:49;;;;;;;2.97;0.60;;;24.60;48.40;;;;;;5027245;28;20464;-73
2022/06/02 09:31:41;;;;;;;0.50;0.50;;;24.60;48.60;;;;;;5028432;28;20439;-71
2022/06/02 09:34:40;;;;;;;1.50;0.70;;;24.00;48.70;;;;;;5026505;28;20424;-68
2022/06/02 09:37:20;;;;;;;0.60;0.60;;;24.00;48.90;;;;;;5026901;28;20419;-67
2022/06/02 09:40:01;;;;;;;0.70;0.53;;;23.90;47.70;;;;;;5027509;28;20484;-69
2022/06/02 09:42:57;;;;;;;0.50;0.50;;;23.90;47.70;;;;;;5029176;28;20459;-69
2022/06/02 09:45:45;;;;;;;0.70;0.60;;;24.00;47.90;;;;;;5028856;28;20562;-67
2022/06/02 09:48:23;;;;;;;0.50;0.50;;;24.00;48.00;;;;;;5026067;28;20412;-71
2022/06/02 09:51:19;;;;;;;0.60;0.60;;;24.00;47.90;;;;;;5028959;28;20896;-70
2022/06/02 09:54:14;;;;;;;0.50;0.43;;;24.00;48.00;;;;;;5028226;28;20408;-69
2022/06/02 10:00:19;;;;;;;0.60;0.50;;;24.00;71.80;;;;;;5027186;28;20466;-71
2022/06/02 10:03:03;;;;;;;0.60;0.50;;;24.10;48.30;;;;;;5027861;28;20465;-70
2022/06/02 10:05:40;;;;;;;0.50;0.50;;;24.40;50.10;;;;;;5023760;28;20427;-71
2022/06/02 10:08:32;;;;;;;0.50;0.40;;;24.70;50.40;;;;;;5027283;28;20438;-73
2022/06/02 10:11:24;;;;;;;1.20;0.70;;;24.10;48.30;;;;;;5023728;28;20432;-73
2022/06/02 10:14:09;;;;;;;1.20;0.60;;;24.10;48.30;;;;;;5026370;28;20479;-73
2022/06/02 10:17:08;;;;;;;0.50;0.50;;;24.30;49.60;;;;;;5029020;28;20408;-72
2022/06/02 10:20:24;;;;;;;0.50;0.50;;;24.10;47.70;;;;;;5027756;28;20947;-73
2022/06/02 10:23:24;;;;;;;0.67;0.67;;;24.10;47.40;;;;;;5105435;28;20547;-73
2022/06/02 10:26:16;;;;;;;1.17;0.47;;;24.10;47.20;;;;;;5110068;28;20409;-72
2022/06/02 10:29:28;;;;;;;0.50;0.50;;;24.10;48.20;;;;;;5035503;28;20428;-72
2022/06/02 10:32:20;;;;;;;0.50;0.40;;;23.90;46.50;;;;;;5023529;28;20572;-72
2022/06/02 10:34:54;;;;;;;0.70;0.40;;;23.90;46.40;;;;;;5028813;28;20495;-72
2022/06/02 10:37:41;;;;;;;0.60;0.50;;;23.90;46.40;;;;;;5028598;28;20459;-73
2022/06/02 10:40:31;;;;;;;0.60;0.60;;;22.30;68.80;;;;;;5026418;28;20420;-73
2022/06/02 10:43:17;;;;;;;0.50;0.47;;;23.90;46.20;;;;;;5028013;28;20507;-73
2022/06/02 10:46:18;;;;;;;0.50;0.50;;;23.80;46.00;;;;;;5025690;28;20408;-73
2022/06/02 10:49:03;;;;;;;1.37;0.50;;;23.90;46.00;;;;;;5120221;27;20478;-72
2022/06/02 10:51:46;;;;;;;0.50;0.50;;;23.80;45.80;;;;;;5025152;28;20454;-73
2022/06/02 10:54:49;;;;;;;0.70;0.63;;;24.00;47.30;;;;;;5026592;28;20416;-72
2022/06/02 10:57:25;;;;;;;1.07;0.50;;;23.80;45.80;;;;;;5028133;28;20407;-73
2022/06/02 11:00:15;;;;;;;1.47;0.50;;;23.80;45.80;;;;;;5028185;28;20407;-73
2022/06/02 11:02:46;;;;;;;1.10;0.73;;;24.10;45.90;;;;;;5018864;28;20463;-71
2022/06/02 11:05:50;;;;;;;0.67;0.67;;;23.90;47.00;;;;;;5024794;28;20440;-70
2022/06/02 11:08:54;;;;;;;0.80;0.70;;;23.80;45.70;;;;;;5027672;28;20404;-71
2022/06/02 11:11:35;;;;;;;1.03;0.70;;;23.80;45.60;;;;;;5025654;28;20491;-70
2022/06/02 11:14:25;;;;;;;1.63;0.87;;;23.80;45.60;;;;;;5027993;28;20500;-71
2022/06/02 11:17:08;;;;;;;2.60;0.60;;;23.80;45.60;;;;;;5026782;28;20770;-70
2022/06/02 11:19:59;;;;;;;1.10;0.80;;;23.80;45.60;;;;;;5027323;28;20982;-73
2022/06/02 11:22:58;;;;;;;0.90;0.77;;;23.80;45.60;;;;;;5021831;28;20498;-70
2022/06/02 11:25:29;;;;;;;1.53;0.60;;;23.70;45.40;;;;;;5027096;28;20412;-71
2022/06/02 11:28:35;;;;;;;2.30;0.50;;;23.00;45.10;;;;;;5027554;28;20412;-70
2022/06/02 11:31:31;;;;;;;15.03;1.10;;;23.70;45.40;;;;;;5026788;28;20495;-71
2022/06/02 11:34:36;;;;;;;0.53;0.53;;;23.70;45.50;;;;;;5025777;28;20420;-70
2022/06/02 11:37:32;;;;;;;2.90;0.83;;;23.70;45.30;;;;;;5022835;28;20481;-70
2022/06/02 11:39:57;;;;;;;0.80;0.73;;;23.70;64.40;;;;;;5025746;28;20819;-71
2022/06/02 11:42:55;;;;;;;0.90;0.50;;;23.70;46.80;;;;;;5026107;28;20539;-70
2022/06/02 11:45:44;;;;;;;0.80;0.60;;;23.70;45.40;;;;;;5024643;28;20187;-70
2022/06/02 11:48:40;;;;;;;1.43;0.57;;;23.70;45.40;;;;;;5023175;28;20480;-71
2022/06/02 11:51:38;;;;;;;0.70;0.60;;;23.60;45.50;;;;;;5026662;28;20439;-71
2022/06/02 11:54:36;;;;;;;1.33;0.50;;;23.70;46.40;;;;;;5027004;28;20484;-71
2022/06/02 11:57:40;;;;;;;0.50;0.50;;;23.60;45.30;;;;;;5026829;28;20404;-71
2022/06/02 12:00:29;;;;;;;1.60;0.70;;;23.40;67.30;;;;;;5024495;28;20415;-70
2022/06/02 12:03:15;;;;;;;3.73;0.73;;;23.60;46.30;;;;;;5021975;28;20460;-70
2022/06/02 12:06:18;;;;;;;3.80;1.37;;;23.60;45.40;;;;;;5026492;28;20423;-72
2022/06/02 12:08:43;;;;;;;0.87;0.50;;;23.60;45.70;;;;;;5026791;28;20528;-71
2022/06/02 12:11:33;;;;;;;0.97;0.60;;;24.30;47.40;;;;;;5022788;28;20444;-68
2022/06/02 12:14:37;;;;;;;0.70;0.60;;;23.80;47.40;;;;;;5025332;28;20529;-68
2022/06/02 12:17:32;;;;;;;2.53;0.80;;;23.80;46.50;;;;;;5024086;28;20484;-68
2022/06/02 12:20:15;;;;;;;1.40;0.70;;;23.80;63.90;;;;;;5024137;28;20439;-70
2022/06/02 12:22:45;;;;;;;1.00;0.80;;;23.80;46.60;;;;;;5026205;28;20604;-71
2022/06/02 12:25:40;;;;;;;2.40;0.93;;;24.10;48.10;;;;;;5023957;28;20472;-72
2022/06/02 12:28:30;;;;;;;0.83;0.83;;;23.90;46.90;;;;;;5024069;28;20462;-73
2022/06/02 12:31:17;;;;;;;0.60;0.60;;;24.00;70.30;;;;;;5024413;28;20519;-75
2022/06/02 12:34:31;;;;;;;2.80;0.70;;;24.40;48.80;;;;;;5025979;28;20831;-73
2022/06/02 12:37:48;;;;;;;1.30;0.80;;;23.90;46.80;;;;;;5055686;28;20463;-71
2022/06/02 12:40:22;;;;;;;0.73;0.73;;;24.00;47.00;;;;;;5034028;28;20528;-76
2022/06/02 12:43:12;;;;;;;4.83;1.13;;;24.00;47.00;;;;;;5025558;28;20797;-72
2022/06/02 12:45:48;;;;;;;2.63;0.90;;;23.80;68.90;;;;;;5025734;28;20459;-73
2022/06/02 12:48:38;;;;;;;1.33;0.87;;;24.00;68.00;;;;;;5024659;28;20753;-73
2022/06/02 12:51:29;;;;;;;3.10;0.63;;;24.10;47.20;;;;;;5023827;28;20447;-73
2022/06/02 12:53:55;;;;;;;2.30;0.73;;;24.80;48.40;;;;;;5026120;28;20427;-73
2022/06/02 12:56:54;;;;;;;0.60;0.60;;;24.50;47.60;;;;;;5026694;28;20408;-73
2022/06/02 12:59:56;;;;;;;0.70;0.70;;;24.00;46.00;;;;;;5022278;28;20175;-73
2022/06/02 13:02:40;;;;;;;2.43;0.73;;;24.00;45.80;;;;;;5026101;28;20455;-73
2022/06/02 13:05:20;;;;;;;3.83;1.00;;;24.70;47.10;;;;;;5025354;28;20578;-73
2022/06/02 13:08:30;;;;;;;1.10;0.80;;;23.90;45.50;;;;;;5025396;28;20412;-73
2022/06/02 13:11:25;;;;;;;1.60;0.80;;;23.90;45.50;;;;;;5023972;28;20492;-73
2022/06/02 13:14:23;;;;;;;7.07;1.07;;;23.90;45.50;;;;;;5021007;28;20412;-73
2022/06/02 13:17:09;;;;;;;2.80;1.03;;;23.90;45.60;;;;;;5049575;28;20423;-73
2022/06/02 13:19:50;;;;;;;0.90;0.80;;;24.30;46.50;;;;;;5058512;28;20431;-73
2022/06/02 13:23:00;;;;;;;2.20;0.90;;;23.90;45.60;;;;;;5024007;28;20447;-74
2022/06/02 13:25:28;;;;;;;0.80;0.80;;;23.90;45.40;;;;;;5026182;28;20409;-73
2022/06/02 13:28:24;;;;;;;4.47;0.90;;;24.10;46.40;;;;;;5026000;28;20487;-73
2022/06/02 13:31:04;;;;;;;1.00;0.83;;;23.90;45.40;;;;;;5025965;28;20438;-73
2022/06/02 13:33:55;;;;;;;2.83;0.90;;;24.00;46.30;;;;;;5025600;28;20420;-73
2022/06/02 13:36:39;;;;;;;1.33;0.83;;;24.50;46.70;;;;;;5016998;28;20433;-73
2022/06/02 13:39:33;;;;;;;1.50;1.10;;;23.90;45.30;;;;;;5025145;28;20856;-73
2022/06/02 13:42:21;;;;;;;2.07;1.00;;;24.20;46.50;;;;;;5023861;28;20554;-70
2022/06/02 13:45:17;;;;;;;2.73;1.30;;;23.90;45.20;;;;;;5024947;28;20428;-70
2022/06/02 13:48:20;;;;;;;3.33;0.67;;;23.90;45.40;;;;;;5024859;28;20435;-73
2022/06/02 13:51:23;;;;;;;0.90;0.90;;;23.40;45.50;;;;;;5027827;28;20473;-73
2022/06/02 14:00:11;;;;;;;0.97;0.80;;;24.10;46.30;;;;;;5027698;28;20407;-74
2022/06/02 14:03:04;;;;;;;2.63;0.80;;;24.40;48.10;;;;;;5026287;28;20528;-75
2022/06/02 14:06:07;;;;;;;1.87;0.90;;;24.10;46.90;;;;;;5021443;28;20802;-74
2022/06/02 14:09:27;;;;;;;1.33;0.63;;;23.90;47.00;;;;;;5027498;28;20880;-74
2022/06/02 14:12:19;;;;;;;2.77;1.23;;;24.20;47.40;;;;;;5070294;28;20532;-74
2022/06/02 14:15:20;;;;;;;1.80;0.67;;;24.20;47.50;;;;;;5029267;28;20412;-71
2022/06/02 14:18:07;;;;;;;0.70;0.60;;;24.20;47.40;;;;;;5028953;28;20439;-73
2022/06/02 14:21:14;;;;;;;0.70;0.70;;;24.30;47.60;;;;;;5027536;28;20459;-69
2022/06/02 14:23:48;;;;;;;1.23;0.70;;;24.30;47.60;;;;;;5043651;28;20458;-72
2022/06/02 14:26:28;;;;;;;1.20;0.70;;;24.50;48.90;;;;;;5033943;28;20420;-72
2022/06/02 14:29:13;;;;;;;1.07;1.07;;;24.40;48.00;;;;;;5025270;28;20441;-73
2022/06/02 14:31:58;;;;;;;0.60;0.60;;;24.40;48.70;;;;;;5026489;28;20448;-72
2022/06/02 14:34:48;;;;;;;0.90;0.60;;;24.40;48.80;;;;;;5022634;28;20442;-73
2022/06/02 14:37:31;;;;;;;1.63;1.00;;;24.60;48.10;;;;;;5025535;28;20491;-75
2022/06/02 14:40:08;;;;;;;1.63;0.60;;;24.80;66.70;;;;;;5027650;28;20408;-74
2022/06/02 14:43:04;;;;;;;1.30;0.80;;;24.50;49.40;;;;;;5027630;28;20466;-74
2022/06/02 14:46:11;;;;;;;1.17;0.70;;;24.50;46.80;;;;;;5026781;28;20408;-74
2022/06/02 14:49:14;;;;;;;0.73;0.73;;;24.40;46.20;;;;;;5026635;28;20472;-74
2022/06/02 14:51:44;;;;;;;1.57;0.80;;;24.40;46.00;;;;;;5028053;28;20836;-74
2022/06/02 14:54:19;;;;;;;1.47;0.93;;;24.80;47.20;;;;;;5028232;28;20916;-74